Time;durP1;ratioP1;P1;durP2;ratioP2;P2;SDS_P1;SDS_P2;PMS_P1;PMS_P2;Temp;Humidity;BMP_temperature;BMP_pressure;BME280_temperature;BME280_humidity;BME280_pressure;Samples;Min_cycle;Max_cycle;Signal;HPM_P1;HPM_P2
2022/11/03 00:02:16;;;;;;;;;;;;;;;18.85;70.70;101482.71;2231822;77;51816;-75
2022/11/03 00:08:41;;;;;;;;;;;;;;;18.84;70.45;101473.00;2285406;76;22363;-75
2022/11/03 00:11:43;;;;;;;;;;;;;;;18.82;70.63;101471.81;2285898;77;50411;-75
2022/11/03 00:14:44;;;;;;;;;;;;;;;18.82;70.60;101475.83;2278799;76;50084;-75
2022/11/03 00:17:46;;;;;;;;;;;;;;;18.83;70.55;101469.48;2258811;76;50794;-76
2022/11/03 00:21:01;;;;;;;;;;;;;;;18.82;70.60;101473.16;2251417;78;50711;-77
2022/11/03 00:24:03;;;;;;;;;;;;;;;18.84;70.78;101477.86;2250122;78;51625;-76
2022/11/03 00:27:04;;;;;;;;;;;;;;;18.83;70.50;101470.83;2238396;79;49545;-77
2022/11/03 00:30:07;;;;;;;;;;;;;;;18.84;70.69;101468.98;2295985;76;50779;-76
2022/11/03 00:33:08;;;;;;;;;;;;;;;18.83;70.66;101469.97;2303891;76;50695;-76
2022/11/03 00:36:11;;;;;;;;;;;;;;;18.82;70.81;101461.09;2324900;76;50341;-76
2022/11/03 00:39:13;;;;;;;;;;;;;;;18.80;70.96;101461.75;2302555;76;51105;-76
2022/11/03 00:42:14;;;;;;;;;;;;;;;18.80;71.06;101470.30;2301819;76;51507;-76
2022/11/03 00:45:16;;;;;;;;;;;;;;;18.82;70.98;101469.64;2336240;75;51479;-76
2022/11/03 00:48:29;;;;;;;;;;;;;;;18.81;70.98;101458.08;2364473;75;50384;-76
2022/11/03 00:51:32;;;;;;;;;;;;;;;18.80;71.02;101455.05;2338016;75;50964;-76
2022/11/03 00:54:34;;;;;;;;;;;;;;;18.80;71.00;101449.68;2363694;75;51667;-75
2022/11/03 00:57:36;;;;;;;;;;;;;;;18.81;71.08;101446.02;2364550;75;51516;-76
2022/11/03 01:00:37;;;;;;;;;;;;;;;18.81;70.99;101435.29;2364939;75;51288;-75
2022/11/03 01:03:39;;;;;;;;;;;;;;;18.81;71.00;101438.48;2364496;75;50389;-75
2022/11/03 01:06:52;;;;;;;;;;;;;;;18.79;70.26;101440.48;2364759;75;51579;-75
2022/11/03 01:09:54;;;;;;;;;;;;;;;18.79;70.52;101445.34;2364983;75;51535;-75
2022/11/03 01:12:55;;;;;;;;;;;;;;;18.77;70.71;101436.61;2363333;75;51572;-76
2022/11/03 01:15:57;;;;;;;;;;;;;;;18.79;70.50;101429.76;2341870;75;50360;-75
2022/11/03 01:18:59;;;;;;;;;;;;;;;18.78;70.44;101439.64;2279229;76;50183;-75
2022/11/03 01:22:00;;;;;;;;;;;;;;;18.77;70.47;101433.93;2333316;76;51522;-75
2022/11/03 01:25:02;;;;;;;;;;;;;;;18.77;70.65;101432.59;2332955;76;50723;-75
2022/11/03 01:28:04;;;;;;;;;;;;;;;18.77;70.68;101428.56;2331617;76;50669;-76
2022/11/03 01:31:06;;;;;;;;;;;;;;;18.77;70.54;101433.09;2260690;77;53175;-75
2022/11/03 01:34:08;;;;;;;;;;;;;;;18.77;70.62;101427.73;2307941;77;50490;-75
2022/11/03 01:37:10;;;;;;;;;;;;;;;18.76;70.68;101434.11;2308052;77;52466;-75
2022/11/03 01:40:11;;;;;;;;;;;;;;;18.76;70.62;101424.22;2308013;77;50392;-75
2022/11/03 01:43:15;;;;;;;;;;;;;;;18.76;70.69;101430.09;2260654;76;49488;-75
2022/11/03 01:46:20;;;;;;;;;;;;;;;18.75;70.68;101425.20;2305981;76;52381;-76
2022/11/03 01:49:24;;;;;;;;;;;;;;;18.73;70.73;101428.55;2316253;76;49935;-75
2022/11/03 01:52:27;;;;;;;;;;;;;;;18.74;70.70;101428.04;2317538;76;50480;-76
2022/11/03 01:55:29;;;;;;;;;;;;;;;18.71;70.62;101422.50;2317434;76;51586;-75
2022/11/03 01:58:31;;;;;;;;;;;;;;;18.72;69.92;101426.34;2295438;76;50103;-75
2022/11/03 02:01:33;;;;;;;;;;;;;;;18.69;69.69;101421.31;2317519;76;50753;-75
2022/11/03 02:04:34;;;;;;;;;;;;;;;18.72;69.43;101428.19;2317065;76;50368;-75
2022/11/03 02:07:50;;;;;;;;;;;;;;;18.72;69.60;101426.85;2290179;76;49537;-74
2022/11/03 02:10:51;;;;;;;;;;;;;;;18.72;69.84;101420.98;2317280;76;50544;-76
2022/11/03 02:13:53;;;;;;;;;;;;;;;18.71;70.04;101416.63;2295487;76;50842;-76
2022/11/03 02:16:56;;;;;;;;;;;;;;;18.72;70.24;101409.42;2273703;77;50698;-75
2022/11/03 02:20:10;;;;;;;;;;;;;;;18.73;70.37;101412.46;2280335;77;51036;-75
2022/11/03 02:23:22;;;;;;;;;;;;;;;18.72;70.11;101404.06;2270729;76;50770;-75
2022/11/03 02:26:24;;;;;;;;;;;;;;;18.70;70.29;101394.86;2305245;77;51689;-76
2022/11/03 02:29:25;;;;;;;;;;;;;;;18.70;70.41;101389.98;2314852;76;51485;-76
2022/11/03 02:32:28;;;;;;;;;;;;;;;18.70;70.25;101388.64;2320614;76;52572;-75
2022/11/03 02:35:35;;;;;;;;;;;;;;;18.69;70.21;101376.25;2342446;76;50392;-75
2022/11/03 02:38:37;;;;;;;;;;;;;;;18.70;70.14;101387.30;2342702;75;51684;-75
2022/11/03 02:41:39;;;;;;;;;;;;;;;18.69;70.33;101370.89;2342836;76;50783;-76
2022/11/03 02:44:41;;;;;;;;;;;;;;;18.68;70.18;101379.95;2301416;76;51804;-76
2022/11/03 02:47:43;;;;;;;;;;;;;;;18.69;70.05;101380.27;2284562;77;50473;-76
2022/11/03 02:50:44;;;;;;;;;;;;;;;18.68;70.14;101382.63;2295497;76;50397;-76
2022/11/03 02:53:47;;;;;;;;;;;;;;;18.68;70.21;101383.47;2291570;76;50737;-76
2022/11/03 02:56:50;;;;;;;;;;;;;;;18.68;70.01;101371.91;2287229;77;50296;-76
2022/11/03 02:59:53;;;;;;;;;;;;;;;18.67;69.92;101375.06;2310472;77;50478;-76
2022/11/03 03:02:59;;;;;;;;;;;;;;;18.67;70.39;101377.75;2306387;76;50500;-76
2022/11/03 03:06:08;;;;;;;;;;;;;;;18.66;70.20;101371.23;2309253;77;50541;-77
2022/11/03 03:09:11;;;;;;;;;;;;;;;18.66;69.96;101364.02;2286735;77;51068;-76
2022/11/03 03:12:12;;;;;;;;;;;;;;;18.65;69.71;101354.80;2310824;76;51645;-76
2022/11/03 03:15:14;;;;;;;;;;;;;;;18.65;69.47;101353.45;2310351;77;51630;-75
2022/11/03 03:18:17;;;;;;;;;;;;;;;18.67;69.83;101348.77;2310179;77;51527;-77
2022/11/03 03:21:20;;;;;;;;;;;;;;;18.65;69.57;101346.27;2289916;76;50986;-75
2022/11/03 03:24:26;;;;;;;;;;;;;;;18.66;69.62;101348.45;2278375;76;50444;-75
2022/11/03 03:27:29;;;;;;;;;;;;;;;18.67;69.63;101350.11;2290135;77;51550;-75
2022/11/03 03:30:30;;;;;;;;;;;;;;;18.65;70.02;101342.73;2309214;76;50361;-75
2022/11/03 03:33:32;;;;;;;;;;;;;;;18.63;69.92;101351.47;2301011;76;50077;-74
2022/11/03 03:36:33;;;;;;;;;;;;;;;18.65;69.93;101353.45;2325944;76;51594;-75
2022/11/03 03:39:36;;;;;;;;;;;;;;;18.65;69.86;101344.06;2310515;77;50720;-76
2022/11/03 03:42:37;;;;;;;;;;;;;;;18.64;69.23;101346.42;2310152;77;50772;-76
2022/11/03 03:45:39;;;;;;;;;;;;;;;18.65;69.54;101339.57;2288730;77;49579;-75
2022/11/03 03:48:40;;;;;;;;;;;;;;;18.65;69.51;101330.67;2310404;77;50250;-75
2022/11/03 03:51:42;;;;;;;;;;;;;;;18.66;69.56;101329.69;2321660;75;50720;-76
2022/11/03 03:54:43;;;;;;;;;;;;;;;18.64;69.37;101333.02;2318406;75;52420;-75
2022/11/03 03:57:45;;;;;;;;;;;;;;;18.65;69.36;101338.71;2288698;77;51020;-75
2022/11/03 04:00:47;;;;;;;;;;;;;;;18.64;69.37;101342.41;2310509;77;51521;-75
2022/11/03 04:03:48;;;;;;;;;;;;;;;18.62;69.86;101333.69;2288397;77;51205;-75
2022/11/03 04:07:45;;;;;;;;;;;;;;;18.61;69.58;101326.66;2288926;77;50089;-75
2022/11/03 04:09:53;;;;;;;;;;;;;;;18.60;69.71;101338.37;2307358;77;22612;-76
2022/11/03 04:22:53;;;;;;;;;;;;;;;18.58;68.73;101335.88;2312680;75;22233;-75
2022/11/03 04:25:55;;;;;;;;;;;;;;;18.56;68.44;101328.49;2301306;76;51439;-75
2022/11/03 04:28:57;;;;;;;;;;;;;;;18.61;69.44;101326.66;2325922;76;50760;-76
2022/11/03 04:31:59;;;;;;;;;;;;;;;18.62;69.32;101330.50;2332280;76;51521;-76
2022/11/03 04:35:00;;;;;;;;;;;;;;;18.62;69.28;101324.30;2307992;76;49575;-75
2022/11/03 04:38:03;;;;;;;;;;;;;;;18.61;69.25;101328.00;2306523;76;50033;-75
2022/11/03 04:41:15;;;;;;;;;;;;;;;18.61;69.07;101317.28;2306840;76;50769;-75
2022/11/03 04:44:16;;;;;;;;;;;;;;;18.62;69.32;101314.92;2332970;76;50720;-75
2022/11/03 04:47:18;;;;;;;;;;;;;;;18.62;69.83;101307.72;2308868;76;49596;-75
2022/11/03 04:50:20;;;;;;;;;;;;;;;18.61;69.46;101307.91;2308179;75;52149;-76
2022/11/03 04:53:22;;;;;;;;;;;;;;;18.61;69.42;101310.58;2339674;75;51569;-75
2022/11/03 04:56:24;;;;;;;;;;;;;;;18.60;69.18;101308.41;2324743;76;51484;-76
2022/11/03 04:59:26;;;;;;;;;;;;;;;18.63;69.20;101300.03;2324815;76;50277;-75
2022/11/03 05:02:27;;;;;;;;;;;;;;;18.64;69.33;101296.33;2324570;76;50365;-75
2022/11/03 05:05:29;;;;;;;;;;;;;;;18.63;69.63;101291.98;2324332;76;50347;-76
2022/11/03 05:08:30;;;;;;;;;;;;;;;18.63;69.46;101288.47;2324760;76;50379;-76
2022/11/03 05:11:34;;;;;;;;;;;;;;;18.63;69.86;101279.09;2311186;75;50154;-76
2022/11/03 05:14:35;;;;;;;;;;;;;;;18.65;69.93;101279.73;2364303;75;50782;-75
2022/11/03 05:17:37;;;;;;;;;;;;;;;18.64;69.45;101281.59;2364904;75;51520;-75
2022/11/03 05:20:40;;;;;;;;;;;;;;;18.66;70.00;101273.39;2364849;75;51463;-76
2022/11/03 05:23:43;;;;;;;;;;;;;;;18.64;69.65;101270.03;2341932;75;52100;-75
2022/11/03 05:26:45;;;;;;;;;;;;;;;18.61;69.57;101267.19;2364947;75;50078;-76
2022/11/03 05:29:47;;;;;;;;;;;;;;;18.61;69.58;101255.64;2364846;75;50335;-76
2022/11/03 05:32:48;;;;;;;;;;;;;;;18.63;69.55;101253.63;2364712;74;50613;-75
2022/11/03 05:35:50;;;;;;;;;;;;;;;18.63;69.80;101245.08;2342704;75;50991;-73
2022/11/03 05:38:53;;;;;;;;;;;;;;;18.59;68.74;101241.05;2334751;75;51485;-75
2022/11/03 05:41:55;;;;;;;;;;;;;;;18.57;68.87;101244.91;2328067;76;50773;-74
2022/11/03 05:44:56;;;;;;;;;;;;;;;18.56;68.89;101240.56;2333325;76;50400;-74
2022/11/03 05:47:58;;;;;;;;;;;;;;;18.54;68.13;101243.40;2309426;76;50084;-75
2022/11/03 05:51:00;;;;;;;;;;;;;;;18.52;67.89;101236.53;2333789;76;50714;-74
2022/11/03 05:54:02;;;;;;;;;;;;;;;18.53;68.40;101236.89;2333668;76;51644;-74
2022/11/03 05:57:05;;;;;;;;;;;;;;;18.52;68.07;101233.85;2333438;76;51548;-75
2022/11/03 06:00:08;;;;;;;;;;;;;;;18.53;69.24;101231.52;2309232;76;52685;-74
2022/11/03 06:03:11;;;;;;;;;;;;;;;18.50;68.94;101234.88;2334152;76;51494;-74
2022/11/03 06:06:15;;;;;;;;;;;;;;;18.52;68.83;101233.34;2333539;76;52345;-72
2022/11/03 06:09:18;;;;;;;;;;;;;;;18.52;69.27;101235.19;2332221;76;50669;-74
2022/11/03 06:12:20;;;;;;;;;;;;;;;18.50;68.61;101226.83;2337329;75;51081;-74
2022/11/03 06:15:29;;;;;;;;;;;;;;;18.50;68.59;101231.36;2301013;76;51496;-74
2022/11/03 06:18:32;;;;;;;;;;;;;;;18.50;68.76;101232.19;2323414;76;50651;-73
2022/11/03 06:21:33;;;;;;;;;;;;;;;18.51;68.55;101241.06;2325517;76;50422;-73
2022/11/03 06:24:35;;;;;;;;;;;;;;;18.53;68.72;101241.73;2294506;76;49576;-73
2022/11/03 06:27:37;;;;;;;;;;;;;;;18.55;69.04;101249.59;2318987;76;51514;-74
2022/11/03 06:30:39;;;;;;;;;;;;;;;18.55;68.47;101254.95;2321657;76;50380;-74
2022/11/03 06:33:40;;;;;;;;;;;;;;;18.56;68.36;101245.41;2345186;76;51495;-74
2022/11/03 06:36:42;;;;;;;;;;;;;;;18.55;68.35;101250.92;2309874;76;50988;-74
2022/11/03 06:39:43;;;;;;;;;;;;;;;18.55;68.59;101246.91;2325454;75;50295;-75
2022/11/03 06:42:45;;;;;;;;;;;;;;;18.55;68.71;101248.25;2330156;76;50347;-74
2022/11/03 06:45:50;;;;;;;;;;;;;;;18.56;68.91;101256.13;2332507;76;50253;-75
2022/11/03 06:48:53;;;;;;;;;;;;;;;18.59;69.16;101246.92;2320940;75;50112;-76
2022/11/03 06:51:55;;;;;;;;;;;;;;;18.64;69.37;101240.55;2332695;75;51518;-76
2022/11/03 06:55:14;;;;;;;;;;;;;;;18.59;68.98;101234.35;2318158;76;50280;-76
2022/11/03 06:58:18;;;;;;;;;;;;;;;18.64;70.62;101232.00;2327555;75;50346;-75
2022/11/03 07:01:20;;;;;;;;;;;;;;;18.68;70.81;101227.16;2331244;75;51883;-77
2022/11/03 07:04:22;;;;;;;;;;;;;;;18.70;70.63;101227.80;2346318;75;51552;-76
2022/11/03 07:07:24;;;;;;;;;;;;;;;18.68;66.93;101211.07;2312604;77;51515;-76
2022/11/03 07:10:26;;;;;;;;;;;;;;;18.67;67.35;101208.04;2287180;77;51477;-74
2022/11/03 07:13:28;;;;;;;;;;;;;;;18.66;67.28;101211.74;2287980;77;51857;-77
2022/11/03 07:16:34;;;;;;;;;;;;;;;18.64;67.51;101208.39;2313999;76;50553;-76
2022/11/03 07:19:40;;;;;;;;;;;;;;;18.68;67.71;101216.44;2316738;75;50609;-76
2022/11/03 07:22:41;;;;;;;;;;;;;;;18.69;67.92;101212.73;2335636;75;51542;-76
2022/11/03 07:25:43;;;;;;;;;;;;;;;18.69;68.12;101223.45;2297050;76;52330;-77
2022/11/03 07:28:47;;;;;;;;;;;;;;;18.73;68.33;101216.77;2331713;75;50754;-77
2022/11/03 07:31:49;;;;;;;;;;;;;;;18.81;68.28;101220.80;2320777;76;51522;-77
2022/11/03 07:34:51;;;;;;;;;;;;;;;18.85;68.21;101217.26;2323159;76;51537;-76
2022/11/03 07:37:53;;;;;;;;;;;;;;;18.87;68.19;101216.08;2302614;76;49655;-76
2022/11/03 07:40:55;;;;;;;;;;;;;;;18.90;68.05;101218.41;2325673;76;50590;-76
2022/11/03 07:43:58;;;;;;;;;;;;;;;18.88;68.14;101217.77;2327296;76;50891;-76
2022/11/03 07:46:59;;;;;;;;;;;;;;;18.85;68.21;101218.09;2325435;76;50808;-76
2022/11/03 07:50:01;;;;;;;;;;;;;;;18.83;68.29;101217.92;2300778;75;50071;-76
2022/11/03 07:53:04;;;;;;;;;;;;;;;18.82;68.39;101210.39;2328167;76;50766;-76
2022/11/03 07:56:19;;;;;;;;;;;;;;;18.80;68.45;101211.56;2327094;76;50786;-75
2022/11/03 07:59:31;;;;;;;;;;;;;;;18.78;68.46;101206.39;2324798;76;51553;-74
2022/11/03 08:02:46;;;;;;;;;;;;;;;18.80;68.48;101205.70;2304860;75;51079;-74
2022/11/03 08:05:47;;;;;;;;;;;;;;;18.78;68.54;101201.03;2337290;75;51540;-74
2022/11/03 08:08:49;;;;;;;;;;;;;;;18.77;68.65;101195.83;2329538;76;50808;-76
2022/11/03 08:11:51;;;;;;;;;;;;;;;18.76;68.73;101188.30;2335165;75;50406;-74
2022/11/03 08:14:52;;;;;;;;;;;;;;;18.76;68.87;101186.95;2303078;76;49871;-74
2022/11/03 08:17:54;;;;;;;;;;;;;;;18.77;68.95;101183.77;2313194;76;49998;-75
2022/11/03 08:20:55;;;;;;;;;;;;;;;18.76;69.08;101176.74;2327709;76;50353;-74
2022/11/03 08:23:57;;;;;;;;;;;;;;;18.78;69.02;101168.00;2332890;76;50692;-75
2022/11/03 08:26:59;;;;;;;;;;;;;;;18.76;68.78;101158.81;2281499;76;52691;-74
2022/11/03 08:30:00;;;;;;;;;;;;;;;18.76;69.06;101160.15;2306625;76;51596;-75
2022/11/03 08:33:02;;;;;;;;;;;;;;;18.75;69.06;101162.48;2329588;76;51483;-75
2022/11/03 08:36:03;;;;;;;;;;;;;;;18.75;69.09;101158.45;2301355;76;51420;-75
2022/11/03 08:39:05;;;;;;;;;;;;;;;18.76;68.98;101152.61;2275761;75;52575;-74
2022/11/03 08:42:06;;;;;;;;;;;;;;;18.76;68.89;101157.47;2302601;75;50410;-75
2022/11/03 08:45:08;;;;;;;;;;;;;;;18.78;68.89;101145.22;2363643;75;50431;-75
2022/11/03 08:48:10;;;;;;;;;;;;;;;18.72;68.76;101140.01;2326815;76;51488;-74
2022/11/03 08:51:12;;;;;;;;;;;;;;;18.68;69.00;101136.02;2318386;75;52493;-75
2022/11/03 08:54:14;;;;;;;;;;;;;;;18.67;68.79;101132.98;2294450;76;50305;-75
2022/11/03 08:57:15;;;;;;;;;;;;;;;18.71;69.09;101134.33;2325039;76;50359;-75
2022/11/03 09:00:17;;;;;;;;;;;;;;;18.71;68.88;101123.09;2297473;76;50634;-76
2022/11/03 09:03:18;;;;;;;;;;;;;;;18.72;68.87;101122.08;2300807;76;51276;-75
2022/11/03 09:06:20;;;;;;;;;;;;;;;18.73;68.80;101112.21;2293756;76;50743;-75
2022/11/03 09:09:22;;;;;;;;;;;;;;;18.75;68.88;101113.36;2293733;75;51507;-75
2022/11/03 09:12:23;;;;;;;;;;;;;;;18.72;69.26;101110.52;2294161;76;51521;-74
2022/11/03 09:15:25;;;;;;;;;;;;;;;18.74;69.18;101111.70;2267786;76;52799;-74
2022/11/03 09:18:26;;;;;;;;;;;;;;;18.76;68.95;101103.85;2293234;76;51486;-75
2022/11/03 09:21:28;;;;;;;;;;;;;;;18.70;68.62;101098.65;2324354;75;50386;-75
2022/11/03 09:24:29;;;;;;;;;;;;;;;18.67;68.54;101095.46;2303651;76;50387;-74
2022/11/03 09:27:31;;;;;;;;;;;;;;;18.67;68.96;101090.93;2299289;76;51391;-75
2022/11/03 09:30:33;;;;;;;;;;;;;;;18.68;68.94;101086.43;2326174;76;50393;-75
2022/11/03 09:33:34;;;;;;;;;;;;;;;18.71;68.91;101084.23;2325891;76;50373;-74
2022/11/03 09:36:36;;;;;;;;;;;;;;;18.71;68.62;101072.16;2298374;76;52569;-75
2022/11/03 09:39:37;;;;;;;;;;;;;;;18.70;68.41;101077.69;2272515;76;49778;-75
2022/11/03 09:42:39;;;;;;;;;;;;;;;18.67;68.67;101070.00;2296537;76;50303;-75
2022/11/03 09:45:40;;;;;;;;;;;;;;;18.63;68.74;101055.29;2323943;75;50731;-75
2022/11/03 09:48:42;;;;;;;;;;;;;;;18.60;68.80;101052.45;2309571;76;51454;-74
2022/11/03 09:51:44;;;;;;;;;;;;;;;18.59;68.54;101048.59;2325171;75;51769;-75
2022/11/03 09:54:45;;;;;;;;;;;;;;;18.57;68.78;101046.58;2321234;75;51414;-77
2022/11/03 09:57:47;;;;;;;;;;;;;;;18.59;68.38;101041.89;2317975;76;51509;-74
2022/11/03 10:00:48;;;;;;;;;;;;;;;18.63;68.72;101040.55;2317918;76;50270;-75
2022/11/03 10:03:50;;;;;;;;;;;;;;;18.65;68.66;101041.19;2289840;75;49578;-74
2022/11/03 10:06:51;;;;;;;;;;;;;;;18.67;68.69;101035.16;2334756;75;50740;-75
2022/11/03 10:09:53;;;;;;;;;;;;;;;18.67;68.77;101027.11;2317935;76;50719;-75
2022/11/03 10:12:55;;;;;;;;;;;;;;;18.69;68.92;101018.40;2317857;76;50471;-76
2022/11/03 10:15:57;;;;;;;;;;;;;;;18.72;68.71;101021.55;2292885;76;49645;-76
2022/11/03 10:18:59;;;;;;;;;;;;;;;18.75;68.54;101015.03;2317742;76;51434;-75
2022/11/03 10:22:01;;;;;;;;;;;;;;;18.75;68.69;101013.70;2317808;76;50349;-75
2022/11/03 10:25:21;;;;;;;;;;;;;;;18.73;68.29;101003.64;2323670;75;51402;-75
2022/11/03 10:28:23;;;;;;;;;;;;;;;18.65;68.39;100998.30;2296374;76;51047;-75
2022/11/03 10:31:24;;;;;;;;;;;;;;;18.67;69.01;100989.08;2326193;76;50665;-74
2022/11/03 10:34:27;;;;;;;;;;;;;;;18.70;68.54;100987.41;2297780;76;50723;-75
2022/11/03 10:37:29;;;;;;;;;;;;;;;18.71;68.56;100982.87;2322861;76;50463;-75
2022/11/03 10:40:34;;;;;;;;;;;;;;;18.69;68.82;100979.02;2326342;76;50846;-75
2022/11/03 10:43:36;;;;;;;;;;;;;;;18.76;68.53;100983.73;2302496;76;50475;-75
2022/11/03 10:46:38;;;;;;;;;;;;;;;18.77;68.44;100969.30;2302071;75;51459;-75
2022/11/03 10:49:40;;;;;;;;;;;;;;;18.77;68.40;100971.47;2357665;75;50707;-75
2022/11/03 10:52:41;;;;;;;;;;;;;;;18.69;68.27;100962.11;2303762;75;54434;-76
2022/11/03 10:55:43;;;;;;;;;;;;;;;18.68;68.57;100966.64;2293283;76;50713;-75
2022/11/03 10:58:44;;;;;;;;;;;;;;;18.65;68.07;100956.28;2321280;75;50632;-74
2022/11/03 11:01:46;;;;;;;;;;;;;;;18.64;68.55;100951.91;2323897;75;51511;-75
2022/11/03 11:04:55;;;;;;;;;;;;;;;18.67;68.49;100948.04;2346130;75;51510;-75
2022/11/03 11:07:57;;;;;;;;;;;;;;;18.68;68.60;100940.34;2320012;75;51466;-75
2022/11/03 11:10:58;;;;;;;;;;;;;;;18.64;68.46;100935.00;2305960;75;51830;-75
2022/11/03 11:14:14;;;;;;;;;;;;;;;18.64;68.54;100935.83;2301311;76;52428;-75
2022/11/03 11:17:34;;;;;;;;;;;;;;;18.62;68.79;100927.63;2274148;75;51062;-75
2022/11/03 11:20:37;;;;;;;;;;;;;;;18.64;68.54;100924.28;2320443;76;51554;-76
2022/11/03 11:23:40;;;;;;;;;;;;;;;18.63;68.52;100922.11;2328781;75;51508;-76
2022/11/03 11:26:43;;;;;;;;;;;;;;;18.65;68.67;100912.53;2339264;75;51536;-75
2022/11/03 11:29:45;;;;;;;;;;;;;;;18.60;68.46;100907.73;2296818;76;49587;-76
2022/11/03 11:32:48;;;;;;;;;;;;;;;18.63;68.48;100897.16;2293776;76;50352;-75
2022/11/03 11:35:52;;;;;;;;;;;;;;;18.65;68.33;100892.43;2317661;76;49999;-76
2022/11/03 11:38:54;;;;;;;;;;;;;;;18.66;68.36;100884.73;2317958;76;51516;-76
2022/11/03 11:42:06;;;;;;;;;;;;;;;18.65;68.33;100879.89;2321153;75;50472;-75
2022/11/03 11:45:08;;;;;;;;;;;;;;;18.67;68.53;100879.69;2321881;76;50307;-76
2022/11/03 11:48:16;;;;;;;;;;;;;;;18.66;68.79;100879.38;2312858;75;50642;-75
2022/11/03 11:51:18;;;;;;;;;;;;;;;18.67;68.66;100863.09;2357796;75;50716;-76
2022/11/03 11:54:19;;;;;;;;;;;;;;;18.71;68.38;100859.58;2325792;75;51792;-76
2022/11/03 11:57:21;;;;;;;;;;;;;;;18.62;68.22;100857.44;2357162;75;51448;-76
2022/11/03 12:00:24;;;;;;;;;;;;;;;18.60;68.44;100850.59;2363945;75;50755;-76
2022/11/03 12:03:30;;;;;;;;;;;;;;;18.62;68.32;100844.55;2317555;76;51494;-76
2022/11/03 12:06:33;;;;;;;;;;;;;;;18.65;68.23;100836.14;2317695;75;49571;-76
2022/11/03 12:09:34;;;;;;;;;;;;;;;18.66;68.21;100836.49;2317792;76;51632;-76
2022/11/03 12:12:36;;;;;;;;;;;;;;;18.66;68.15;100825.77;2335504;75;51517;-76
2022/11/03 12:15:49;;;;;;;;;;;;;;;18.65;68.54;100825.42;2332063;75;51485;-75
2022/11/03 12:18:51;;;;;;;;;;;;;;;18.69;68.56;100821.39;2331119;75;52614;-76
2022/11/03 12:21:54;;;;;;;;;;;;;;;18.70;68.23;100814.52;2320702;75;51654;-76
2022/11/03 12:24:56;;;;;;;;;;;;;;;18.71;68.11;100808.64;2319534;75;50841;-76
2022/11/03 12:27:58;;;;;;;;;;;;;;;18.69;68.10;100809.33;2324651;75;50432;-76
2022/11/03 12:31:00;;;;;;;;;;;;;;;18.62;68.10;100817.23;2268097;76;49577;-76
2022/11/03 12:34:01;;;;;;;;;;;;;;;18.63;68.28;100804.70;2317616;76;51570;-75
2022/11/03 12:37:03;;;;;;;;;;;;;;;18.65;68.15;100805.33;2318009;76;50732;-76
2022/11/03 12:40:04;;;;;;;;;;;;;;;18.64;68.10;100803.67;2317794;76;50247;-76
2022/11/03 12:43:06;;;;;;;;;;;;;;;18.64;68.12;100796.45;2305413;76;49637;-76
2022/11/03 12:46:08;;;;;;;;;;;;;;;18.65;68.23;100792.78;2317411;76;50110;-74
2022/11/03 12:49:09;;;;;;;;;;;;;;;18.66;68.36;100790.93;2288873;75;50382;-76
2022/11/03 12:52:11;;;;;;;;;;;;;;;18.64;68.22;100785.73;2291465;75;50734;-76
2022/11/03 12:55:12;;;;;;;;;;;;;;;18.63;68.22;100784.59;2313173;76;50994;-76
2022/11/03 12:58:14;;;;;;;;;;;;;;;18.64;68.24;100786.25;2292572;76;50734;-76
2022/11/03 13:01:15;;;;;;;;;;;;;;;18.62;68.16;100773.02;2293673;76;51481;-75
2022/11/03 13:04:17;;;;;;;;;;;;;;;18.64;68.10;100772.34;2317675;76;51562;-76
2022/11/03 13:07:19;;;;;;;;;;;;;;;18.65;68.10;100769.14;2290238;76;51611;-75
2022/11/03 13:10:20;;;;;;;;;;;;;;;18.65;68.04;100755.74;2297095;75;50385;-76
2022/11/03 13:13:22;;;;;;;;;;;;;;;18.66;68.07;100756.09;2317685;75;50627;-74
2022/11/03 13:16:23;;;;;;;;;;;;;;;18.65;68.18;100751.72;2348288;75;50716;-76
2022/11/03 13:19:25;;;;;;;;;;;;;;;18.65;68.17;100743.20;2293747;76;51510;-76
2022/11/03 13:22:27;;;;;;;;;;;;;;;18.65;68.13;100739.66;2293241;76;53542;-75
2022/11/03 13:25:29;;;;;;;;;;;;;;;18.66;68.24;100729.28;2317720;76;50881;-76
2022/11/03 13:28:30;;;;;;;;;;;;;;;18.65;68.36;100719.08;2293388;76;50681;-76
2022/11/03 13:31:33;;;;;;;;;;;;;;;18.66;68.47;100714.03;2293542;76;52524;-76
2022/11/03 13:34:34;;;;;;;;;;;;;;;18.66;68.25;100707.84;2295978;76;50422;-75
2022/11/03 13:37:36;;;;;;;;;;;;;;;18.64;68.23;100703.17;2331003;75;50651;-76
2022/11/03 13:40:37;;;;;;;;;;;;;;;18.62;68.29;100695.81;2312241;75;52332;-77
2022/11/03 13:43:39;;;;;;;;;;;;;;;18.63;68.30;100688.11;2285610;76;50015;-76
2022/11/03 13:46:41;;;;;;;;;;;;;;;18.62;68.43;100686.43;2337226;75;51554;-78
2022/11/03 13:49:43;;;;;;;;;;;;;;;18.67;68.41;100678.67;2302176;76;51908;-74
2022/11/03 13:52:44;;;;;;;;;;;;;;;18.68;68.30;100671.80;2331348;75;50774;-74
2022/11/03 13:55:46;;;;;;;;;;;;;;;18.63;68.14;100663.48;2295842;76;51628;-74
2022/11/03 13:58:47;;;;;;;;;;;;;;;18.62;68.46;100654.27;2310938;76;51511;-74
2022/11/03 14:01:49;;;;;;;;;;;;;;;18.60;68.29;100654.47;2317836;76;52264;-75
2022/11/03 14:04:51;;;;;;;;;;;;;;;18.63;68.20;100645.23;2317666;76;51425;-74
2022/11/03 14:07:52;;;;;;;;;;;;;;;18.63;68.20;100639.88;2270799;77;51041;-75
2022/11/03 14:10:54;;;;;;;;;;;;;;;18.65;68.20;100647.20;2266668;75;51007;-74
2022/11/03 14:13:56;;;;;;;;;;;;;;;18.65;68.23;100643.18;2320397;76;51490;-74
2022/11/03 14:16:57;;;;;;;;;;;;;;;18.63;68.21;100634.52;2317908;76;51652;-75
2022/11/03 14:19:59;;;;;;;;;;;;;;;18.65;68.26;100639.16;2312645;75;51493;-75
2022/11/03 14:23:00;;;;;;;;;;;;;;;18.63;68.33;100637.20;2300086;76;51493;-74
2022/11/03 14:26:02;;;;;;;;;;;;;;;18.62;68.50;100634.17;2267780;76;51251;-74
2022/11/03 14:29:04;;;;;;;;;;;;;;;18.63;68.65;100625.96;2317748;76;50420;-73
2022/11/03 14:32:05;;;;;;;;;;;;;;;18.63;68.33;100621.94;2294097;76;50478;-74
2022/11/03 14:35:07;;;;;;;;;;;;;;;18.62;68.43;100616.75;2340301;75;49587;-74
2022/11/03 14:38:08;;;;;;;;;;;;;;;18.59;68.34;100612.59;2347505;75;51513;-74
2022/11/03 14:44:30;;;;;;;;;;;;;;;18.62;68.84;100599.33;2324911;76;22278;-75
2022/11/03 14:47:32;;;;;;;;;;;;;;;18.63;68.92;100602.36;2300672;76;49925;-75
2022/11/03 14:50:33;;;;;;;;;;;;;;;18.63;68.82;100583.59;2317872;76;50081;-74
2022/11/03 14:53:35;;;;;;;;;;;;;;;18.63;68.74;100575.56;2331823;75;50587;-75
2022/11/03 14:56:36;;;;;;;;;;;;;;;18.64;68.73;100575.87;2297775;76;50745;-75
2022/11/03 14:59:38;;;;;;;;;;;;;;;18.61;68.82;100570.38;2268401;76;53858;-75
2022/11/03 15:02:40;;;;;;;;;;;;;;;18.63;68.51;100562.16;2317976;76;50678;-77
2022/11/03 15:05:44;;;;;;;;;;;;;;;18.65;68.18;100553.40;2293648;76;50397;-74
2022/11/03 15:08:46;;;;;;;;;;;;;;;18.65;68.16;100553.40;2317774;76;50774;-74
2022/11/03 15:11:47;;;;;;;;;;;;;;;18.66;68.15;100539.00;2268399;76;50046;-74
2022/11/03 15:14:49;;;;;;;;;;;;;;;18.66;68.15;100531.78;2317782;76;51455;-74
2022/11/03 15:17:51;;;;;;;;;;;;;;;18.65;68.15;100527.45;2293847;76;50283;-73
2022/11/03 15:20:53;;;;;;;;;;;;;;;18.64;68.09;100520.93;2318122;76;50725;-74
2022/11/03 15:23:54;;;;;;;;;;;;;;;18.60;67.91;100515.13;2312700;75;49598;-74
2022/11/03 15:26:56;;;;;;;;;;;;;;;18.59;67.71;100511.28;2331024;75;50916;-74
2022/11/03 15:29:57;;;;;;;;;;;;;;;18.58;67.95;100512.31;2298256;75;50781;-74
2022/11/03 15:33:00;;;;;;;;;;;;;;;18.56;67.81;100504.95;2288932;77;51564;-74
2022/11/03 15:36:03;;;;;;;;;;;;;;;18.56;67.68;100509.80;2288388;76;50318;-74
2022/11/03 15:39:04;;;;;;;;;;;;;;;18.63;67.50;100508.56;2288818;76;51544;-74
2022/11/03 15:42:06;;;;;;;;;;;;;;;18.66;67.44;100501.48;2331093;75;52317;-74
2022/11/03 15:45:09;;;;;;;;;;;;;;;18.66;67.43;100498.80;2283060;76;52391;-74
2022/11/03 15:48:10;;;;;;;;;;;;;;;18.63;67.57;100495.98;2293700;76;51343;-74
2022/11/03 15:51:12;;;;;;;;;;;;;;;18.61;67.73;100485.13;2302583;76;51522;-74
2022/11/03 15:54:14;;;;;;;;;;;;;;;18.61;67.87;100477.09;2301132;76;54058;-74